sensor_id;sensor_type;location;lat;lon;timestamp;P1;durP1;ratioP1;P2;durP2;ratioP2
35056;SDS011;21241;51.828;19.574;2022-09-09T10:10:57;14.90;;;13.60;;
35056;SDS011;21241;51.828;19.574;2022-09-09T10:14:07;14.90;;;13.70;;
35056;SDS011;21241;51.828;19.574;2022-09-09T10:26:15;15.10;;;13.80;;
35056;SDS011;21241;51.828;19.574;2022-09-09T11:12:42;10.80;;;9.90;;
35056;SDS011;21241;51.828;19.574;2022-09-09T11:15:14;9.80;;;9.20;;
35056;SDS011;21241;51.828;19.574;2022-09-09T11:17:50;10.30;;;9.50;;
35056;SDS011;21241;51.828;19.574;2022-09-09T11:20:26;10.20;;;9.40;;
35056;SDS011;21241;51.828;19.574;2022-09-09T11:22:59;10.20;;;9.50;;
35056;SDS011;21241;51.828;19.574;2022-09-09T11:25:52;9.40;;;8.70;;
35056;SDS011;21241;51.828;19.574;2022-09-09T11:28:28;10.20;;;9.30;;
35056;SDS011;21241;51.828;19.574;2022-09-09T11:40:23;9.20;;;8.50;;
35056;SDS011;21241;51.828;19.574;2022-09-09T11:43:42;8.10;;;7.60;;
35056;SDS011;21241;51.828;19.574;2022-09-09T11:46:17;8.20;;;7.50;;
35056;SDS011;21241;51.828;19.574;2022-09-09T11:50:59;8.50;;;7.80;;
35056;SDS011;21241;51.828;19.574;2022-09-09T11:53:54;7.30;;;6.80;;
35056;SDS011;21241;51.828;19.574;2022-09-09T11:59:06;7.60;;;7.00;;
35056;SDS011;21241;51.828;19.574;2022-09-09T12:01:58;7.80;;;7.30;;
35056;SDS011;21241;51.828;19.574;2022-09-09T12:04:35;7.90;;;7.30;;
35056;SDS011;21241;51.828;19.574;2022-09-09T12:10:32;8.80;;;8.00;;
35056;SDS011;21241;51.828;19.574;2022-09-09T12:13:34;8.50;;;7.80;;
35056;SDS011;21241;51.828;19.574;2022-09-09T12:16:27;8.20;;;7.60;;
35056;SDS011;21241;51.828;19.574;2022-09-09T12:19:23;9.10;;;8.40;;
35056;SDS011;21241;51.828;19.574;2022-09-09T12:27:31;10.40;;;9.60;;
35056;SDS011;21241;51.828;19.574;2022-09-09T12:30:10;9.30;;;8.60;;
35056;SDS011;21241;51.828;19.574;2022-09-09T12:32:47;8.80;;;8.20;;
35056;SDS011;21241;51.828;19.574;2022-09-09T12:35:40;10.40;;;9.60;;
35056;SDS011;21241;51.828;19.574;2022-09-09T12:40:58;8.90;;;8.20;;
35056;SDS011;21241;51.828;19.574;2022-09-09T12:43:31;10.20;;;9.40;;
35056;SDS011;21241;51.828;19.574;2022-09-09T12:46:07;9.50;;;8.90;;
35056;SDS011;21241;51.828;19.574;2022-09-09T12:48:37;9.00;;;8.40;;
35056;SDS011;21241;51.828;19.574;2022-09-09T12:51:28;8.60;;;8.10;;
35056;SDS011;21241;51.828;19.574;2022-09-09T12:53:58;9.50;;;8.80;;
35056;SDS011;21241;51.828;19.574;2022-09-09T12:56:29;9.30;;;8.70;;
35056;SDS011;21241;51.828;19.574;2022-09-09T12:59:02;8.60;;;7.90;;
35056;SDS011;21241;51.828;19.574;2022-09-09T13:01:34;8.20;;;7.50;;
35056;SDS011;21241;51.828;19.574;2022-09-09T13:04:02;8.70;;;8.10;;
35056;SDS011;21241;51.828;19.574;2022-09-09T13:06:31;8.80;;;8.10;;
35056;SDS011;21241;51.828;19.574;2022-09-09T13:09:03;7.50;;;7.00;;
35056;SDS011;21241;51.828;19.574;2022-09-09T13:11:36;7.50;;;7.00;;
35056;SDS011;21241;51.828;19.574;2022-09-09T13:17:19;7.00;;;6.50;;
35056;SDS011;21241;51.828;19.574;2022-09-09T13:19:49;7.30;;;6.70;;
35056;SDS011;21241;51.828;19.574;2022-09-09T13:22:21;8.00;;;7.40;;
35056;SDS011;21241;51.828;19.574;2022-09-09T13:25:00;7.50;;;7.00;;
35056;SDS011;21241;51.828;19.574;2022-09-09T13:27:33;8.00;;;7.30;;
35056;SDS011;21241;51.828;19.574;2022-09-09T13:30:27;7.50;;;6.90;;
35056;SDS011;21241;51.828;19.574;2022-09-09T13:33:18;7.70;;;7.00;;
35056;SDS011;21241;51.828;19.574;2022-09-09T13:35:56;7.30;;;6.70;;
35056;SDS011;21241;51.828;19.574;2022-09-09T13:38:27;6.40;;;6.00;;
35056;SDS011;21241;51.828;19.574;2022-09-09T13:41:00;6.30;;;5.80;;
35056;SDS011;21241;51.828;19.574;2022-09-09T13:43:44;6.50;;;6.00;;
35056;SDS011;21241;51.828;19.574;2022-09-09T13:46:32;7.20;;;6.60;;
35056;SDS011;21241;51.828;19.574;2022-09-09T15:07:08;6.50;;;6.00;;
35056;SDS011;21241;51.828;19.574;2022-09-09T15:09:48;6.40;;;5.90;;
35056;SDS011;21241;51.828;19.574;2022-09-09T15:12:25;6.00;;;5.60;;
35056;SDS011;21241;51.828;19.574;2022-09-09T15:14:54;6.30;;;5.90;;
35056;SDS011;21241;51.828;19.574;2022-09-09T15:49:23;6.80;;;6.40;;
